Time;durP1;ratioP1;P1;durP2;ratioP2;P2;SDS_P1;SDS_P2;PMS_P1;PMS_P2;Temp;Humidity;BMP_temperature;BMP_pressure;BME280_temperature;BME280_humidity;BME280_pressure;Samples;Min_cycle;Max_cycle;Signal;HPM_P1;HPM_P2
2022/09/14 00:01:22;;;;;;;4.90;2.98;;;;;;;11.43;78.65;98886.25;1654202;87;21005;-84
2022/09/14 00:03:54;;;;;;;6.70;3.30;;;;;;;11.39;79.32;98878.59;1660476;85;21052;-84
2022/09/14 00:06:21;;;;;;;8.78;3.55;;;;;;;11.38;80.54;98881.66;1675945;85;21033;-83
2022/09/14 00:08:53;;;;;;;9.33;3.58;;;;;;;11.39;78.50;98880.74;1653076;87;21124;-84
2022/09/14 00:11:22;;;;;;;7.90;3.45;;;;;;;11.28;79.37;98874.59;1656574;85;21073;-83
2022/09/14 00:13:50;;;;;;;6.83;3.62;;;;;;;11.28;80.14;98871.11;1673485;85;21068;-84
2022/09/14 00:16:24;;;;;;;5.40;3.12;;;;;;;11.28;80.54;98873.28;1674121;85;21011;-84
2022/09/14 00:18:54;;;;;;;7.37;3.40;;;;;;;11.28;81.51;98871.98;1686436;85;21047;-84
2022/09/14 00:21:22;;;;;;;6.50;3.58;;;;;;;11.32;80.45;98864.48;1686636;85;20956;-84
2022/09/14 00:23:49;;;;;;;7.17;3.20;;;;;;;11.33;79.70;98857.06;1686448;85;21015;-83
2022/09/14 00:26:19;;;;;;;6.75;3.02;;;;;;;11.34;80.23;98863.98;1673314;85;21003;-83
2022/09/14 00:28:50;;;;;;;7.45;3.60;;;;;;;11.38;80.63;98866.04;1692727;85;21092;-83
2022/09/14 00:31:18;;;;;;;7.65;3.58;;;;;;;11.42;79.45;98865.04;1692598;81;21014;-83
2022/09/14 00:33:47;;;;;;;12.25;3.80;;;;;;;11.43;79.65;98858.08;1692587;81;21030;-83
2022/09/14 00:36:18;;;;;;;10.95;3.75;;;;;;;11.44;80.17;98862.36;1659285;83;21022;-84
2022/09/14 00:38:47;;;;;;;8.33;3.15;;;;;;;11.44;79.47;98868.88;1680309;83;21080;-83
2022/09/14 00:41:18;;;;;;;8.23;3.62;;;;;;;11.32;80.31;98851.47;1689816;80;21315;-82
2022/09/14 00:44:02;;;;;;;7.00;3.02;;;;;;;11.43;80.17;98860.67;1751807;81;20991;-83
2022/09/14 00:46:34;;;;;;;9.10;3.05;;;;;;;11.44;80.51;98858.45;1752689;82;20991;-84
2022/09/14 00:49:04;;;;;;;4.90;3.08;;;;;;;11.42;81.39;98848.55;1752830;81;21016;-84
2022/09/14 00:51:33;;;;;;;8.28;3.15;;;;;;;11.44;80.37;98855.43;1752542;81;20963;-83
2022/09/14 00:54:05;;;;;;;6.08;3.15;;;;;;;11.42;81.07;98847.24;1751408;81;21000;-81
2022/09/14 00:56:33;;;;;;;6.65;3.12;;;;;;;11.43;80.46;98847.20;1752493;81;20936;-84
2022/09/14 00:59:05;;;;;;;8.13;3.47;;;;;;;11.39;81.25;98846.06;1752255;81;21043;-85
2022/09/14 01:01:31;;;;;;;6.53;3.33;;;;;;;11.37;81.18;98850.01;1752347;82;20964;-84
2022/09/14 01:03:58;;;;;;;8.25;3.42;;;;;;;11.35;80.51;98844.84;1752096;81;21031;-84
2022/09/14 01:06:42;;;;;;;9.15;3.40;;;;;;;11.32;80.53;98850.17;1752379;82;20949;-84
2022/09/14 01:09:29;;;;;;;4.78;3.02;;;;;;;11.32;81.09;98846.27;1751826;81;21047;-85
2022/09/14 01:12:04;;;;;;;8.08;3.60;;;;;;;11.32;80.48;98841.05;1733793;82;20967;-84
2022/09/14 01:14:46;;;;;;;5.62;3.22;;;;;;;11.31;79.40;98831.53;1752471;81;21036;-84
2022/09/14 01:17:53;;;;;;;6.65;2.77;;;;;;;11.29;80.16;98822.92;1752714;81;21012;-84
2022/09/14 01:20:35;;;;;;;5.40;3.22;;;;;;;11.24;81.58;98817.03;1752162;81;21062;-83
2022/09/14 01:23:19;;;;;;;6.42;3.00;;;;;;;11.24;81.06;98814.86;1749719;81;20972;-85
2022/09/14 01:25:54;;;;;;;;;;;;;;;11.27;80.10;98825.19;1754956;81;21004;-84
2022/09/14 01:28:44;;;;;;;5.75;2.85;;;;;;;11.21;80.80;98832.73;1752407;82;20145;-84
2022/09/14 01:31:25;;;;;;;7.00;2.87;;;;;;;11.23;80.38;98827.48;1733697;82;21036;-84
2022/09/14 01:33:57;;;;;;;9.18;2.98;;;;;;;11.22;80.67;98820.14;1751426;81;21021;-84
2022/09/14 01:36:27;;;;;;;6.53;3.37;;;;;;;11.20;80.89;98815.86;1752317;81;21000;-84
2022/09/14 01:38:55;;;;;;;8.10;2.80;;;;;;;11.22;81.59;98814.06;1752582;82;20992;-84
2022/09/14 01:41:28;;;;;;;7.35;3.00;;;;;;;11.23;83.21;98805.37;1748302;81;21101;-86
2022/09/14 01:44:15;;;;;;;6.15;3.27;;;;;;;11.23;82.64;98817.92;1753650;80;21011;-85
2022/09/14 01:46:47;;;;;;;8.15;3.00;;;;;;;11.23;82.02;98808.81;1757211;81;21101;-84
2022/09/14 01:49:22;;;;;;;4.97;3.15;;;;;;;11.23;82.94;98807.97;1755658;82;21036;-84
2022/09/14 01:51:54;;;;;;;4.37;2.60;;;;;;;11.22;82.36;98811.45;1749707;82;20988;-85
2022/09/14 01:54:38;;;;;;;5.80;3.30;;;;;;;11.23;82.41;98810.58;1743643;82;21004;-84
2022/09/14 01:57:19;;;;;;;6.60;3.12;;;;;;;11.24;81.72;98810.53;1743469;82;21051;-83
2022/09/14 01:59:50;;;;;;;8.95;3.20;;;;;;;11.20;82.78;98811.95;1744409;82;20973;-84
2022/09/14 02:02:32;;;;;;;4.47;2.75;;;;;;;11.19;82.36;98809.81;1744574;82;21033;-85
2022/09/14 02:05:10;;;;;;;5.58;2.45;;;;;;;11.18;81.62;98809.42;1743603;82;21008;-85
2022/09/14 02:07:38;;;;;;;5.67;2.80;;;;;;;11.19;81.85;98803.77;1744383;82;21032;-83
2022/09/14 02:10:08;;;;;;;10.48;3.08;;;;;;;11.17;82.42;98809.02;1731919;80;21581;-86
2022/09/14 02:12:35;;;;;;;12.20;3.10;;;;;;;11.16;82.07;98808.62;1731045;81;21017;-84
2022/09/14 02:15:04;;;;;;;6.28;3.08;;;;;;;11.15;81.79;98812.11;1731087;81;21068;-85
2022/09/14 02:17:31;;;;;;;7.10;2.75;;;;;;;11.13;82.17;98812.61;1730982;83;21025;-85
2022/09/14 02:20:02;;;;;;;6.47;3.08;;;;;;;11.14;81.81;98820.80;1731281;82;21049;-83
2022/09/14 02:22:29;;;;;;;6.50;3.33;;;;;;;11.12;82.19;98816.10;1712487;81;21069;-85
2022/09/14 02:24:57;;;;;;;7.15;3.40;;;;;;;11.10;83.28;98816.17;1731019;83;21135;-85
2022/09/14 02:27:24;;;;;;;5.62;2.83;;;;;;;11.10;82.40;98814.88;1731040;83;21042;-85
2022/09/14 02:29:51;;;;;;;7.83;3.42;;;;;;;11.06;82.16;98824.98;1731107;81;21089;-85
2022/09/14 02:32:29;;;;;;;5.50;3.10;;;;;;;11.04;82.08;98819.40;1730825;83;21002;-85
2022/09/14 02:35:16;;;;;;;5.22;3.00;;;;;;;10.99;81.79;98810.91;1730359;83;21013;-85
2022/09/14 02:38:00;;;;;;;6.65;3.27;;;;;;;10.95;80.97;98818.79;1753844;82;20977;-85
2022/09/14 02:40:44;;;;;;;5.15;2.70;;;;;;;10.87;81.86;98818.64;1702572;83;21033;-85
2022/09/14 02:43:23;;;;;;;;;;;;;;;10.82;82.48;98810.95;1667667;83;21065;-85
2022/09/14 02:46:04;;;;;;;5.12;3.00;;;;;;;10.79;83.05;98804.56;1659278;85;20097;-82
2022/09/14 02:48:45;;;;;;;6.83;3.45;;;;;;;10.75;82.42;98798.59;1662005;84;21312;-84
2022/09/14 02:51:38;;;;;;;7.95;3.33;;;;;;;10.72;83.63;98789.61;1679208;85;21086;-84
2022/09/14 02:54:15;;;;;;;6.95;3.95;;;;;;;10.72;83.95;98790.91;1673499;84;21003;-85
2022/09/14 02:56:43;;;;;;;8.80;3.45;;;;;;;10.76;83.82;98796.84;1696932;84;21027;-85
2022/09/14 02:59:10;;;;;;;6.28;3.77;;;;;;;10.77;83.30;98801.16;1708248;83;21125;-85
2022/09/14 03:01:37;;;;;;;12.28;3.80;;;;;;;10.80;83.20;98802.34;1713524;79;21009;-84
2022/09/14 03:04:04;;;;;;;9.43;3.20;;;;;;;10.84;82.85;98809.19;1711952;84;21013;-84
2022/09/14 03:06:31;;;;;;;9.58;2.90;;;;;;;10.85;83.40;98806.13;1704365;80;21084;-85
2022/09/14 03:08:58;;;;;;;10.95;4.85;;;;;;;10.84;82.89;98800.09;1682455;81;21105;-84
2022/09/14 03:11:24;;;;;;;6.62;3.60;;;;;;;10.82;83.28;98809.66;1686884;84;21050;-85
2022/09/14 03:13:51;;;;;;;14.05;3.25;;;;;;;10.81;83.23;98812.33;1710938;84;21173;-85
2022/09/14 03:16:19;;;;;;;5.95;3.17;;;;;;;10.80;82.95;98803.65;1711035;79;21153;-85
2022/09/14 03:18:45;;;;;;;7.28;3.50;;;;;;;10.78;83.24;98808.05;1710946;83;21021;-85
2022/09/14 03:21:15;;;;;;;5.37;2.95;;;;;;;10.75;82.88;98809.00;1710854;83;21034;-84
2022/09/14 03:23:48;;;;;;;7.67;3.10;;;;;;;10.72;84.17;98809.53;1710873;84;21071;-84
2022/09/14 03:26:22;;;;;;;10.23;3.10;;;;;;;10.70;84.13;98818.70;1710935;84;21074;-85
2022/09/14 03:28:56;;;;;;;6.08;2.85;;;;;;;10.73;82.95;98822.95;1711300;84;21102;-84
2022/09/14 03:31:24;;;;;;;4.45;2.42;;;;;;;10.75;82.94;98819.86;1698007;80;20952;-85
2022/09/14 03:33:57;;;;;;;5.15;2.83;;;;;;;10.71;83.55;98815.65;1682609;83;21021;-84
2022/09/14 03:36:27;;;;;;;6.50;2.80;;;;;;;10.71;83.13;98813.05;1702285;83;20994;-85
2022/09/14 03:38:56;;;;;;;4.62;2.67;;;;;;;10.71;82.94;98822.15;1702148;83;21024;-86
2022/09/14 03:41:24;;;;;;;6.10;3.20;;;;;;;10.72;83.55;98820.81;1702174;84;21140;-85
2022/09/14 03:43:51;;;;;;;5.08;3.17;;;;;;;10.75;83.84;98820.70;1739316;82;21218;-85
2022/09/14 03:46:21;;;;;;;8.78;3.25;;;;;;;10.78;82.64;98817.15;1753763;80;21040;-85
2022/09/14 03:48:47;;;;;;;6.35;2.98;;;;;;;10.79;83.03;98820.16;1754132;80;21040;-85
2022/09/14 03:51:14;;;;;;;7.25;3.87;;;;;;;10.81;82.76;98822.27;1731849;80;21073;-84
2022/09/14 03:53:43;;;;;;;7.47;3.52;;;;;;;10.79;82.46;98822.77;1731029;82;21088;-85
2022/09/14 03:56:15;;;;;;;7.70;3.22;;;;;;;10.75;82.64;98822.00;1729527;82;21288;-85
2022/09/14 03:58:43;;;;;;;6.55;3.10;;;;;;;10.73;82.25;98822.50;1711762;83;21016;-85
2022/09/14 04:01:14;;;;;;;5.33;2.98;;;;;;;10.69;82.51;98822.19;1706092;83;21017;-84
2022/09/14 04:03:41;;;;;;;6.45;2.77;;;;;;;10.61;83.42;98820.27;1731119;83;21101;-85
2022/09/14 04:06:08;;;;;;;7.30;3.37;;;;;;;10.57;81.59;98816.52;1731155;83;21013;-86
2022/09/14 04:08:37;;;;;;;6.03;3.25;;;;;;;10.49;82.85;98821.94;1731009;82;20979;-85
2022/09/14 04:11:19;;;;;;;4.92;3.12;;;;;;;10.46;83.30;98829.34;1732029;80;21052;-85
2022/09/14 04:13:47;;;;;;;6.20;3.45;;;;;;;10.44;82.96;98816.00;1732316;81;21049;-84
2022/09/14 04:16:16;;;;;;;6.20;3.20;;;;;;;10.41;84.02;98823.45;1708866;82;21009;-84
2022/09/14 04:18:44;;;;;;;6.35;3.10;;;;;;;10.43;82.67;98832.51;1703176;83;21030;-85
2022/09/14 04:21:18;;;;;;;5.95;3.37;;;;;;;10.39;82.77;98828.30;1731421;79;21172;-91
2022/09/14 04:24:05;;;;;;;7.80;3.58;;;;;;;10.38;82.84;98830.48;1658000;84;21151;-91
2022/09/14 04:26:32;;;;;;;7.00;3.30;;;;;;;10.38;83.21;98833.92;1689506;85;21089;-88
2022/09/14 04:28:59;;;;;;;7.05;3.40;;;;;;;10.42;82.78;98825.59;1688650;82;21085;-90
2022/09/14 04:31:26;;;;;;;8.10;3.40;;;;;;;10.43;83.91;98806.06;1726549;82;21353;-91
2022/09/14 04:33:55;;;;;;;7.50;3.40;;;;;;;10.49;84.01;98794.19;1730414;82;21033;-86
2022/09/14 04:36:27;;;;;;;9.60;3.37;;;;;;;10.52;84.60;98795.83;1762606;80;21250;-87
2022/09/14 04:38:56;;;;;;;10.63;3.12;;;;;;;10.55;84.05;98804.40;1774232;78;21636;-90
2022/09/14 04:41:23;;;;;;;6.53;3.10;;;;;;;10.59;84.14;98810.83;1807428;78;21573;-87
2022/09/14 04:43:55;;;;;;;5.87;3.52;;;;;;;10.62;84.57;98808.11;1781964;80;21135;31
2022/09/14 04:46:26;;;;;;;8.50;3.87;;;;;;;10.66;85.20;98816.22;1749967;81;21034;-85
2022/09/14 04:48:53;;;;;;;7.42;3.55;;;;;;;10.69;84.31;98824.79;1752100;81;21063;-85
2022/09/14 04:51:24;;;;;;;9.15;3.55;;;;;;;10.71;84.52;98822.15;1741386;82;21012;-83
2022/09/14 04:53:55;;;;;;;12.45;3.47;;;;;;;10.72;84.50;98826.44;1710373;84;21048;-85
2022/09/14 04:56:23;;;;;;;7.70;3.10;;;;;;;10.75;84.78;98822.45;1733215;82;21065;-84
2022/09/14 04:58:54;;;;;;;8.18;3.62;;;;;;;10.79;83.19;98825.83;1741367;80;20994;-84
2022/09/14 05:01:26;;;;;;;5.60;3.25;;;;;;;10.85;83.98;98829.53;1741474;81;20998;-85
2022/09/14 05:03:53;;;;;;;5.83;2.95;;;;;;;10.88;83.64;98822.50;1709725;84;21046;-84
2022/09/14 05:06:24;;;;;;;4.87;3.02;;;;;;;10.92;82.76;98829.30;1736065;82;21034;-84
2022/09/14 05:08:52;;;;;;;9.63;3.87;;;;;;;10.97;83.12;98823.95;1707392;83;21039;-84
2022/09/14 05:11:23;;;;;;;16.65;3.75;;;;;;;11.01;83.33;98837.72;1735297;82;20997;-84
2022/09/14 05:13:50;;;;;;;13.20;3.55;;;;;;;11.08;82.80;98828.80;1735482;83;21103;-83
2022/09/14 05:16:20;;;;;;;7.10;2.83;;;;;;;11.13;82.81;98829.06;1712575;83;21080;-83
2022/09/14 05:18:48;;;;;;;5.12;3.00;;;;;;;11.20;83.20;98831.05;1704185;84;21028;-84
2022/09/14 05:21:18;;;;;;;6.53;3.80;;;;;;;11.28;82.66;98839.45;1737412;82;21033;-83
2022/09/14 05:23:45;;;;;;;6.95;3.50;;;;;;;11.35;82.41;98833.13;1734669;83;21014;-85
2022/09/14 05:26:14;;;;;;;6.90;3.35;;;;;;;11.43;82.54;98833.34;1752054;80;20999;-85
2022/09/14 05:28:41;;;;;;;8.75;3.42;;;;;;;11.52;82.68;98835.66;1741293;81;20990;-84
2022/09/14 05:31:11;;;;;;;6.15;2.87;;;;;;;11.62;82.34;98831.84;1726816;80;21041;-86
2022/09/14 05:33:38;;;;;;;5.67;2.80;;;;;;;11.70;82.32;98832.89;1719418;79;21154;-89
2022/09/14 05:36:07;;;;;;;7.45;3.02;;;;;;;11.78;82.10;98839.98;1707125;83;21016;-89
2022/09/14 05:38:37;;;;;;;5.97;2.58;;;;;;;11.86;82.08;98834.52;1693864;83;21087;-89
2022/09/14 05:41:05;;;;;;;5.72;2.87;;;;;;;11.96;81.89;98830.72;1720585;83;21107;-86
2022/09/14 05:43:34;;;;;;;6.90;3.00;;;;;;;12.04;81.78;98827.39;1731199;81;21025;-90
2022/09/14 05:48:46;;;;;;;5.67;2.58;;;;;;;12.22;81.21;98825.88;1650505;85;21085;-83
2022/09/14 05:51:17;;;;;;;5.03;2.87;;;;;;;12.30;80.99;98835.58;1659458;84;21108;-83
2022/09/14 05:53:49;;;;;;;4.65;2.70;;;;;;;12.36;80.36;98827.14;1653305;85;21037;-83
2022/09/14 05:56:17;;;;;;;4.83;2.50;;;;;;;12.42;80.24;98826.92;1676158;83;20983;-83
2022/09/14 05:58:44;;;;;;;4.72;2.70;;;;;;;12.47;79.78;98833.67;1643857;82;21085;-83
2022/09/14 06:01:21;;;;;;;9.08;3.27;;;;;;;12.52;79.65;98844.77;1708292;83;21062;-90
2022/09/14 06:03:49;;;;;;;5.95;3.20;;;;;;;12.57;79.26;98831.54;1733647;82;20962;-86
2022/09/14 06:06:18;;;;;;;8.78;3.00;;;;;;;12.64;78.97;98824.36;1709828;83;21595;-87
2022/09/14 06:08:48;;;;;;;8.93;3.20;;;;;;;12.70;78.55;98830.64;1707849;83;21469;-87
2022/09/14 06:11:17;;;;;;;5.70;2.87;;;;;;;12.72;78.13;98835.34;1713949;83;21012;-86
2022/09/14 06:13:45;;;;;;;8.55;3.60;;;;;;;12.77;78.17;98837.77;1710930;83;20988;-85
2022/09/14 06:16:15;;;;;;;5.22;3.20;;;;;;;12.82;78.52;98838.45;1458354;82;10000404;-85
2022/09/14 06:18:43;;;;;;;8.93;2.85;;;;;;;12.84;78.48;98831.42;1643310;85;20994;-89
2022/09/14 06:21:15;;;;;;;8.33;3.65;;;;;;;12.96;78.57;98835.31;1651679;86;21000;-84
2022/09/14 06:23:45;;;;;;;11.53;3.30;;;;;;;12.96;78.39;98834.02;1649799;85;21084;-87
2022/09/14 06:26:12;;;;;;;4.87;2.72;;;;;;;13.02;78.45;98835.08;1628182;85;21033;-86
2022/09/14 06:28:39;;;;;;;5.72;2.85;;;;;;;13.12;78.70;98829.42;1651592;85;21000;-88
2022/09/14 06:31:08;;;;;;;10.85;3.02;;;;;;;13.19;78.04;98823.52;1653570;85;20961;-80
2022/09/14 06:33:35;;;;;;;7.05;2.62;;;;;;;13.29;78.17;98823.57;1644343;85;21037;-80
2022/09/14 06:36:10;;;;;;;6.78;2.70;;;;;;;13.38;77.32;98826.72;1665034;84;21009;-83
2022/09/14 06:38:38;;;;;;;4.90;2.70;;;;;;;13.46;76.55;98825.94;1654439;85;21012;-81
2022/09/14 06:41:08;;;;;;;9.83;2.52;;;;;;;13.51;75.87;98826.61;1396475;85;10000781;-79
2022/09/14 06:43:37;;;;;;;5.78;2.85;;;;;;;13.59;75.33;98833.67;1629535;86;20984;-82
2022/09/14 06:46:08;;;;;;;3.77;2.12;;;;;;;13.67;75.91;98825.05;1626997;86;20976;-82
2022/09/14 06:48:40;;;;;;;6.08;2.50;;;;;;;13.78;75.56;98829.81;1628335;86;21003;-84
2022/09/14 06:51:14;;;;;;;7.55;2.92;;;;;;;13.82;75.17;98829.23;1628553;86;22008;-81
2022/09/14 06:53:40;;;;;;;;;;;;;;;13.91;74.85;98835.38;1616924;88;20980;-83
2022/09/14 06:56:07;;;;;;;9.00;2.55;;;;;;;13.94;74.68;98839.16;1400976;86;10000520;-86
2022/09/14 06:58:35;;;;;;;4.58;2.47;;;;;;;14.01;75.16;98835.84;1384717;87;10000448;-83
2022/09/14 07:01:07;;;;;;;6.10;2.65;;;;;;;14.11;74.70;98834.05;1614073;87;21038;-83
2022/09/14 07:03:36;;;;;;;8.30;2.40;;;;;;;14.22;74.74;98838.80;1601251;88;20990;-79
2022/09/14 07:06:07;;;;;;;5.40;2.20;;;;;;;14.36;74.87;98830.81;1620876;88;21001;-81
2022/09/14 07:08:35;;;;;;;9.98;2.52;;;;;;;14.51;75.20;98832.27;1603419;87;20957;-83
2022/09/14 07:11:19;;;;;;;6.58;2.89;;;;;;;14.63;72.47;98832.67;1541300;87;10000277;-78
2022/09/14 07:13:46;;;;;;;8.75;2.85;;;;;;;14.77;74.31;98832.05;1617799;88;21016;-83
2022/09/14 07:16:14;;;;;;;6.90;2.87;;;;;;;14.90;72.59;98826.17;1618600;87;21038;-80
2022/09/14 07:18:41;;;;;;;5.62;2.22;;;;;;;15.02;73.30;98822.56;1620384;88;21041;-85
2022/09/14 07:21:12;;;;;;;4.55;2.40;;;;;;;15.11;72.97;98823.44;1621670;87;21149;-84
2022/09/14 07:23:41;;;;;;;12.03;3.08;;;;;;;15.25;72.48;98827.55;1620649;88;21524;-82
2022/09/14 07:26:21;;;;;;;4.92;2.55;;;;;;;15.33;72.84;98828.95;1620318;87;21173;-85
2022/09/14 07:28:52;;;;;;;6.50;2.77;;;;;;;15.44;72.01;98821.43;1616965;87;21005;-83
2022/09/14 07:31:30;;;;;;;4.55;2.33;;;;;;;15.58;71.44;98818.09;1615955;87;21243;-85
2022/09/14 07:34:00;;;;;;;7.95;2.45;;;;;;;15.69;71.30;98815.80;1620537;87;20985;-84
2022/09/14 07:36:27;;;;;;;3.98;2.08;;;;;;;15.78;70.92;98811.44;1617992;88;21095;-85
2022/09/14 07:38:55;;;;;;;6.87;2.50;;;;;;;15.89;69.38;98814.34;1609445;87;21001;-84
2022/09/14 07:41:27;;;;;;;5.85;2.27;;;;;;;16.02;70.41;98815.88;1620383;87;21060;-84
2022/09/14 07:43:59;;;;;;;5.72;2.12;;;;;;;16.15;69.99;98808.69;1621946;87;21044;-83
2022/09/14 07:46:27;;;;;;;4.75;1.90;;;;;;;16.27;69.08;98808.03;1624806;87;20998;-82
2022/09/14 07:48:57;;;;;;;6.92;2.17;;;;;;;16.41;68.45;98804.23;1622371;88;21832;-83
2022/09/14 07:51:26;;;;;;;4.65;2.10;;;;;;;16.58;68.36;98807.23;1618279;87;21030;-82
2022/09/14 07:53:53;;;;;;;7.35;2.30;;;;;;;16.66;68.38;98795.86;1618887;88;21065;-86
2022/09/14 07:56:20;;;;;;;6.28;2.00;;;;;;;16.80;67.37;98801.66;1622895;88;21080;-83
2022/09/14 07:58:48;;;;;;;5.03;2.30;;;;;;;16.90;66.80;98795.00;1606216;86;21525;-83
2022/09/14 08:01:18;;;;;;;9.03;2.45;;;;;;;16.99;67.31;98791.47;1611068;87;21080;-81
2022/09/14 08:03:47;;;;;;;4.78;2.37;;;;;;;17.13;67.41;98781.50;1609338;88;21003;-83
2022/09/14 08:06:18;;;;;;;7.03;2.47;;;;;;;17.27;66.64;98778.95;1612899;88;21033;-83
2022/09/14 08:08:47;;;;;;;6.37;2.20;;;;;;;17.36;65.83;98770.99;1614599;88;21044;-82
2022/09/14 08:11:27;;;;;;;9.05;2.20;;;;;;;17.45;65.99;98773.09;1614863;88;21157;-85
2022/09/14 08:14:02;;;;;;;7.00;2.05;;;;;;;17.55;66.03;98772.93;1615147;88;21565;-81
2022/09/14 08:16:30;;;;;;;9.60;2.83;;;;;;;17.66;64.79;98769.66;1621252;88;21029;-81
2022/09/14 08:19:02;;;;;;;6.65;2.20;;;;;;;17.78;65.31;98772.02;1614533;87;21014;-85
2022/09/14 08:21:31;;;;;;;13.00;3.30;;;;;;;17.87;62.70;98777.61;1611324;88;21020;-83
2022/09/14 08:23:58;;;;;;;5.35;2.20;;;;;;;17.99;60.77;98778.66;1610517;88;21020;-83
2022/09/14 08:26:26;;;;;;;3.50;1.87;;;;;;;18.13;59.65;98779.14;1614920;88;21052;-82
2022/09/14 08:28:54;;;;;;;4.72;1.87;;;;;;;18.26;61.91;98775.27;1617767;87;21012;-89
2022/09/14 08:31:24;;;;;;;4.85;1.90;;;;;;;18.39;61.41;98767.00;1610305;88;21064;-87
2022/09/14 08:33:57;;;;;;;3.42;2.10;;;;;;;18.56;61.00;98774.30;1618716;87;21500;-85
2022/09/14 08:36:27;;;;;;;4.90;2.15;;;;;;;18.69;58.53;98782.64;1614566;87;21496;-87
2022/09/14 08:38:54;;;;;;;2.45;1.60;;;;;;;18.81;59.84;98779.73;1620633;88;21040;-84
2022/09/14 08:41:47;;;;;;;3.87;1.70;;;;;;;18.94;60.30;98771.04;1615473;87;21016;-85
2022/09/14 08:44:40;;;;;;;4.80;2.00;;;;;;;19.07;61.04;98773.26;1620379;88;20985;-85
2022/09/14 08:47:14;;;;;;;8.25;3.20;;;;;;;19.18;60.51;98760.69;1619713;88;20999;-84
2022/09/14 08:50:04;;;;;;;6.05;2.08;;;;;;;19.38;58.62;98747.53;1621963;88;21187;-82
2022/09/14 08:52:39;;;;;;;5.37;2.00;;;;;;;19.51;59.29;98740.47;1611261;88;21081;-83
2022/09/14 08:55:41;;;;;;;6.83;1.80;;;;;;;19.64;57.75;98737.38;1606847;88;21239;-82
2022/09/14 08:58:22;;;;;;;8.13;2.02;;;;;;;19.80;58.41;98738.53;1620581;88;21016;-80
2022/09/14 09:01:14;;;;;;;7.75;2.08;;;;;;;20.00;58.11;98733.19;1653118;86;21040;-85
2022/09/14 09:04:00;;;;;;;4.83;1.87;;;;;;;20.21;57.04;98734.81;1627890;86;21038;-85
2022/09/14 09:06:53;;;;;;;4.15;1.98;;;;;;;20.39;56.24;98734.44;1631509;87;21051;-82
2022/09/14 09:09:45;;;;;;;3.02;1.65;;;;;;;20.60;54.80;98732.09;1634620;87;21005;-83
2022/09/14 09:12:38;;;;;;;3.30;1.50;;;;;;;20.74;52.90;98729.78;1645438;87;21758;-81
2022/09/14 09:15:28;;;;;;;3.10;1.67;;;;;;;20.93;51.03;98725.30;1635888;87;21053;-82
2022/09/14 09:18:08;;;;;;;7.72;2.47;;;;;;;21.10;50.06;98720.94;1622163;87;21066;-82
2022/09/14 09:20:51;;;;;;;4.83;1.52;;;;;;;21.24;48.47;98714.13;1646779;87;21037;-83
2022/09/14 09:23:24;;;;;;;5.37;1.92;;;;;;;21.36;49.59;98717.66;1644851;87;21077;-82
2022/09/14 09:26:01;;;;;;;2.95;1.65;;;;;;;21.50;50.37;98708.70;1640628;87;21009;-83
2022/09/14 09:28:28;;;;;;;6.53;1.90;;;;;;;21.63;47.19;98709.46;1639261;86;21042;-84
2022/09/14 09:31:03;;;;;;;4.37;1.90;;;;;;;21.75;46.81;98697.09;1647930;87;21034;-82
2022/09/14 09:33:33;;;;;;;6.42;2.80;;;;;;;21.89;47.14;98681.95;1641994;87;21057;-83
2022/09/14 09:36:07;;;;;;;4.37;1.60;;;;;;;21.95;47.39;98689.41;1645300;87;21029;-81
2022/09/14 09:38:34;;;;;;;3.87;1.80;;;;;;;22.02;48.46;98680.87;1648900;87;21033;-82
2022/09/14 09:41:25;;;;;;;3.17;1.85;;;;;;;22.17;48.29;98699.14;1655899;87;21042;-82
2022/09/14 09:44:09;;;;;;;5.55;1.70;;;;;;;22.30;47.49;98704.32;1647553;87;21041;-84
2022/09/14 09:46:41;;;;;;;7.00;1.92;;;;;;;22.41;46.39;98704.31;1642242;87;21062;-86
2022/09/14 09:49:30;;;;;;;3.55;1.70;;;;;;;22.42;43.88;98700.69;1643528;87;21055;-80
2022/09/14 09:52:15;;;;;;;5.90;2.00;;;;;;;22.50;44.73;98687.70;1644457;85;21034;-81
2022/09/14 09:54:52;;;;;;;3.17;1.87;;;;;;;22.58;46.22;98685.72;1650104;87;21000;-84
2022/09/14 09:57:32;;;;;;;5.20;2.33;;;;;;;22.65;46.00;98680.30;1634378;87;20990;-85
2022/09/14 10:00:20;;;;;;;5.42;2.00;;;;;;;22.69;44.96;98675.59;1630421;87;20982;-85
2022/09/14 10:02:47;;;;;;;5.55;1.90;;;;;;;22.76;46.78;98678.94;1638732;86;21066;-86
2022/09/14 10:05:24;;;;;;;3.67;1.67;;;;;;;22.88;46.34;98673.12;1629154;87;21007;-85
2022/09/14 10:07:56;;;;;;;9.35;2.15;;;;;;;22.97;45.73;98674.16;1632103;87;20950;-86
2022/09/14 10:10:41;;;;;;;7.17;1.90;;;;;;;23.02;45.75;98673.33;1632164;87;21090;-82
2022/09/14 10:13:32;;;;;;;7.40;2.25;;;;;;;23.12;44.61;98681.33;1638386;87;21474;-80
2022/09/14 10:16:15;;;;;;;7.42;1.77;;;;;;;23.30;44.95;98677.62;1628130;87;21012;-81
2022/09/14 10:18:47;;;;;;;;;;;;;;;23.40;45.11;98671.42;1636491;87;21542;-81
2022/09/14 10:21:17;;;;;;;6.70;1.80;;;;;;;23.47;44.57;98666.42;1639011;87;20138;-82
2022/09/14 10:23:44;;;;;;;5.15;1.80;;;;;;;23.58;43.98;98669.02;1628454;87;21018;-84
2022/09/14 10:26:17;;;;;;;4.80;1.50;;;;;;;23.65;42.19;98669.31;1643405;87;21006;-86
2022/09/14 10:28:46;;;;;;;9.25;1.65;;;;;;;23.78;44.24;98655.38;1636411;87;20987;-87
2022/09/14 10:31:27;;;;;;;3.98;1.80;;;;;;;23.84;41.04;98657.99;1640900;87;21058;-85
2022/09/14 10:33:55;;;;;;;4.62;1.60;;;;;;;23.94;44.13;98654.05;1643951;87;21011;-85
2022/09/14 10:36:32;;;;;;;3.15;1.57;;;;;;;24.01;43.68;98658.70;1635244;87;21103;-84
2022/09/14 10:39:25;;;;;;;5.90;1.40;;;;;;;24.12;42.36;98651.59;1633847;87;20954;-85
2022/09/14 10:42:06;;;;;;;3.75;1.70;;;;;;;24.21;42.62;98647.64;1624076;87;21038;-82
2022/09/14 10:44:59;;;;;;;6.55;1.65;;;;;;;24.33;43.12;98630.23;1634265;87;20991;-83
2022/09/14 10:47:52;;;;;;;5.42;1.70;;;;;;;24.41;42.67;98625.08;1638158;87;21014;-81
2022/09/14 10:50:39;;;;;;;3.25;1.70;;;;;;;24.51;40.90;98624.66;1638044;87;21486;-83
2022/09/14 10:53:31;;;;;;;5.40;1.60;;;;;;;24.58;40.79;98615.13;1644747;87;21529;-81
2022/09/14 10:56:27;;;;;;;4.92;1.70;;;;;;;24.68;41.81;98612.98;1627246;87;21026;-81
2022/09/14 10:59:23;;;;;;;3.87;1.95;;;;;;;24.79;42.12;98610.19;1640901;87;20968;-83
2022/09/14 11:02:24;;;;;;;7.72;1.80;;;;;;;24.99;40.45;98609.67;1603115;88;21040;-85
2022/09/14 11:04:59;;;;;;;4.08;1.70;;;;;;;24.89;39.29;98606.16;1604987;88;21056;-83
2022/09/14 11:08:10;;;;;;;8.75;1.70;;;;;;;24.91;38.89;98604.20;1602912;88;20969;-84
2022/09/14 11:11:06;;;;;;;3.17;1.75;;;;;;;25.00;39.74;98603.36;1593734;89;21001;-85
2022/09/14 11:14:05;;;;;;;4.00;1.60;;;;;;;24.86;39.46;98605.13;1615484;89;21007;-84
2022/09/14 11:16:55;;;;;;;4.25;1.50;;;;;;;24.97;39.13;98603.66;1614459;89;21135;-84
2022/09/14 11:19:38;;;;;;;5.97;1.95;;;;;;;25.08;38.03;98600.83;1597859;89;21541;-81
2022/09/14 11:22:31;;;;;;;5.33;1.72;;;;;;;25.19;38.99;98592.69;1596532;89;21037;-85
2022/09/14 11:25:23;;;;;;;2.85;1.72;;;;;;;25.45;39.87;98588.60;1601095;89;21063;-83
2022/09/14 11:27:57;;;;;;;6.22;1.90;;;;;;;25.69;38.71;98588.91;1604607;89;21042;-85
2022/09/14 11:30:44;;;;;;;6.00;1.70;;;;;;;25.76;36.26;98591.31;1596792;89;21012;-83
2022/09/14 11:33:22;;;;;;;4.30;1.77;;;;;;;25.90;37.30;98585.16;1599807;89;21044;-81
2022/09/14 11:35:54;;;;;;;2.67;1.60;;;;;;;26.11;36.86;98585.77;1602401;89;21184;-81
2022/09/14 11:38:25;;;;;;;2.67;1.40;;;;;;;26.27;36.97;98578.44;1588438;90;20995;-81
2022/09/14 11:41:18;;;;;;;5.37;2.35;;;;;;;26.35;35.63;98581.19;1609377;89;21042;-81
2022/09/14 11:44:12;;;;;;;;;;;;;;;26.43;35.22;98582.27;1608983;89;21034;-81
2022/09/14 11:46:59;;;;;;;4.62;2.22;;;;;;;26.48;35.87;98577.30;1613325;89;20190;-82
2022/09/14 11:49:34;;;;;;;4.03;1.60;;;;;;;26.43;35.46;98586.27;1602754;89;21042;-83
2022/09/14 11:52:11;;;;;;;4.30;1.30;;;;;;;26.28;34.72;98582.80;1591200;89;21029;-82
2022/09/14 11:54:40;;;;;;;5.40;1.62;;;;;;;26.47;34.46;98578.30;1584813;89;21172;-82
2022/09/14 11:57:10;;;;;;;3.55;1.80;;;;;;;26.67;35.88;98576.34;1599064;89;21056;-82
2022/09/14 11:59:43;;;;;;;3.75;1.60;;;;;;;26.85;35.19;98579.81;1607942;87;21035;-83
2022/09/14 12:02:26;;;;;;;;;;;;;;;26.89;34.97;98584.34;1640651;87;21074;-83
2022/09/14 12:05:10;;;;;;;3.27;1.47;;;;;;;27.08;35.78;98584.16;1643522;87;20122;-83
2022/09/14 12:07:49;;;;;;;10.65;1.90;;;;;;;27.36;36.73;98584.87;1640831;87;21034;-82
2022/09/14 12:10:20;;;;;;;3.80;1.50;;;;;;;27.67;35.59;98576.84;1637225;87;20998;-82